Time;durP1;ratioP1;P1;durP2;ratioP2;P2;SDS_P1;SDS_P2;PMS_P1;PMS_P2;Temp;Humidity;BMP_temperature;BMP_pressure;BME280_temperature;BME280_humidity;BME280_pressure;Samples;Min_cycle;Max_cycle;Signal;HPM_P1;HPM_P2
2022/04/14 00:00:13;;;;;;;2.20;2.00;;;;;;;19.32;47.12;97395.31;4909747;29;20671;-86
2022/04/14 00:02:40;;;;;;;2.10;1.87;;;;;;;15.89;46.87;96826.41;4913435;29;20439;-86
2022/04/14 00:05:07;;;;;;;2.00;1.80;;;;;;;19.09;47.16;97361.34;4915491;29;20205;-86
2022/04/14 00:07:34;;;;;;;2.10;1.90;;;;;;;19.30;46.99;97387.63;4880391;29;20225;-87
2022/04/14 00:10:00;;;;;;;1.90;1.70;;;;;;;16.01;46.94;96831.97;4906129;29;20668;-86
2022/04/14 00:12:27;;;;;;;2.20;2.00;;;;;;;18.99;47.40;97343.13;4908861;29;20205;-86
2022/04/14 00:14:56;;;;;;;2.10;1.90;;;;;;;18.70;47.29;97292.81;4896682;29;20975;-86
2022/04/14 00:17:23;;;;;;;2.50;2.20;;;;;;;18.23;47.47;97211.31;4913055;29;20272;-86
2022/04/14 00:19:50;;;;;;;2.40;2.20;;;;;;;17.63;47.28;97108.19;4896019;29;20234;-86
2022/04/14 00:22:23;;;;;;;4.33;1.97;;;;;;;19.29;47.28;97393.56;4879951;29;20207;-87
2022/04/14 00:24:54;;;;;;;2.13;1.93;;;;;;;17.17;47.23;97053.91;4895683;29;20217;-85
2022/04/14 00:27:23;;;;;;;3.60;2.63;;;;;;;17.16;47.32;97026.75;4894850;29;20238;-86
2022/04/14 00:29:50;;;;;;;2.20;2.00;;;;;;;19.32;47.41;97395.31;4878964;29;20676;-87
2022/04/14 00:32:16;;;;;;;1.90;1.80;;;;;;;15.81;47.04;96799.03;4890388;29;20236;-87
2022/04/14 00:34:49;;;;;;;4.07;2.17;;;;;;;12.70;47.12;96296.34;4879617;29;20210;-86
2022/04/14 00:37:17;;;;;;;2.77;2.40;;;;;;;19.31;47.16;97402.13;4893517;29;20306;-87
2022/04/14 00:39:47;;;;;;;2.10;1.90;;;;;;;19.31;47.28;97399.56;4912836;29;20664;-86
2022/04/14 00:42:14;;;;;;;3.03;2.10;;;;;;;19.33;47.30;97402.19;4904106;29;20661;-86
2022/04/14 00:44:41;;;;;;;2.50;1.93;;;;;;;19.32;47.24;97397.88;4910224;29;20198;-87
2022/04/14 00:47:10;;;;;;;2.53;2.20;;;;;;;19.32;47.36;97393.66;4912933;29;20265;-87
2022/04/14 00:49:41;;;;;;;2.20;2.00;;;;;;;18.52;47.14;97256.53;4901323;29;20477;-86
2022/04/14 00:52:08;;;;;;;2.73;2.10;;;;;;;19.32;47.23;97397.88;4882683;29;20214;-86
2022/04/14 00:54:35;;;;;;;2.23;1.93;;;;;;;19.33;47.17;97394.53;4898540;29;20202;-86
2022/04/14 00:57:03;;;;;;;2.50;2.13;;;;;;;17.20;47.35;97051.47;4911737;29;20253;-86
2022/04/14 00:59:29;;;;;;;4.17;2.27;;;;;;;14.11;47.10;96575.13;4899364;29;20210;-86
2022/04/14 01:01:56;;;;;;;3.33;2.30;;;;;;;18.31;47.12;97226.06;4884929;29;20672;-86
2022/04/14 01:04:24;;;;;;;2.67;2.00;;;;;;;18.67;47.26;97288.50;4924774;29;20208;-86
2022/04/14 01:06:54;;;;;;;2.40;1.97;;;;;;;19.31;47.48;97396.16;4888037;29;20237;-86
2022/04/14 01:09:20;;;;;;;3.43;2.40;;;;;;;18.47;47.21;97255.50;4886057;29;20235;-86
2022/04/14 01:11:49;;;;;;;2.30;2.10;;;;;;;18.07;47.26;97187.88;4890578;29;20226;-86
2022/04/14 01:14:21;;;;;;;2.77;2.20;;;;;;;18.97;47.35;97344.75;4898181;29;20305;-86
2022/04/14 01:16:47;;;;;;;2.87;2.50;;;;;;;17.18;47.39;97036.19;4887750;29;20229;-87
2022/04/14 01:19:14;;;;;;;3.63;2.60;;;;;;;19.01;47.35;97356.81;4914164;29;20225;-86
2022/04/14 01:21:41;;;;;;;4.03;2.63;;;;;;;19.31;47.38;97412.31;4911833;29;20256;-88
2022/04/14 01:24:09;;;;;;;4.47;2.60;;;;;;;19.32;47.33;97414.03;4882211;29;20210;-86
2022/04/14 01:26:44;;;;;;;2.50;2.30;;;;;;;18.82;47.20;97327.25;4897628;29;20305;-87
2022/04/14 01:29:24;;;;;;;3.33;2.30;;;;;;;18.70;47.30;97313.19;4873994;29;20233;-87
2022/04/14 01:31:51;;;;;;;2.63;2.17;;;;;;;19.04;47.15;97373.03;4881547;29;20230;-86
2022/04/14 01:34:18;;;;;;;2.23;2.03;;;;;;;19.32;47.26;97429.34;4902345;29;20198;-87
2022/04/14 01:39:30;;;;;;;3.40;2.20;;;;;;;15.76;47.21;96830.91;3251199;23;20221;-96
2022/04/14 01:42:28;;;;;;;3.00;2.40;;;;;;;16.87;47.30;97004.47;4887260;29;20193;-94
2022/04/14 01:45:03;;;;;;;3.13;2.40;;;;;;;17.13;47.57;97041.88;4924178;29;20187;-93
2022/04/14 01:52:58;;;;;;;4.30;2.00;;;;;;;16.91;48.01;97069.75;3928734;27;20206;-94
2022/04/14 01:55:31;;;;;;;2.90;2.47;;;;;;;13.89;46.99;96488.28;4923409;29;20183;-92
2022/04/14 01:57:58;;;;;;;3.13;2.50;;;;;;;15.66;47.47;96849.09;4888683;29;20235;-93
2022/04/14 02:00:25;;;;;;;2.73;2.20;;;;;;;15.73;47.27;96824.06;4903964;29;20209;-94
2022/04/14 02:03:08;;;;;;;4.10;2.40;;;;;;;15.64;47.26;96808.50;4904392;29;20200;-94
2022/04/14 02:05:53;;;;;;;2.63;2.43;;;;;;;15.46;46.97;96807.75;4938587;28;20182;-93
2022/04/14 02:08:38;;;;;;;2.47;1.90;;;;;;;15.87;47.42;96848.25;4895720;29;20231;-94
2022/04/14 02:11:07;;;;;;;2.77;2.30;;;;;;;15.79;46.94;96907.91;4904187;29;20198;-93
2022/04/14 02:13:34;;;;;;;2.90;2.43;;;;;;;16.60;47.38;97016.91;4889160;29;20242;-91
2022/04/14 02:16:10;;;;;;;2.97;2.40;;;;;;;16.24;47.23;96922.47;4918642;29;20267;-94
2022/04/14 02:19:05;;;;;;;2.43;2.20;;;;;;;15.66;47.36;96798.44;4893043;29;20187;-95
2022/04/14 02:45:51;;;;;;;4.40;2.67;;;;;;;15.58;47.30;96921.31;1076560;23;20498;-94
2022/04/14 02:48:22;;;;;;;2.83;2.37;;;;;;;15.38;47.10;96806.56;4922329;29;20221;-94
2022/04/14 02:50:58;;;;;;;3.33;2.57;;;;;;;14.95;46.94;96739.72;4894257;29;20243;-94
2022/04/14 02:56:05;;;;;;;3.70;2.40;;;;;;;17.81;48.04;97236.84;4921717;23;21156;-92
2022/04/14 02:58:41;;;;;;;2.43;2.23;;;;;;;17.07;46.72;97077.16;4894341;29;20178;-94
2022/04/14 03:03:46;;;;;;;2.50;2.30;;;;;;;15.33;47.33;96764.06;4946413;23;20209;-93
2022/04/14 03:06:16;;;;;;;4.47;2.50;;;;;;;13.25;48.05;96418.16;4906338;28;20190;-94
2022/04/14 03:08:46;;;;;;;3.80;2.63;;;;;;;14.16;47.13;96556.00;4892771;28;20202;-94
2022/04/14 03:11:23;;;;;;;2.97;2.47;;;;;;;16.57;47.38;97019.31;4906506;29;20179;-92
2022/04/14 03:13:57;;;;;;;2.63;2.40;;;;;;;15.04;47.33;96724.06;4905734;29;20190;-94
2022/04/14 03:16:28;;;;;;;2.30;2.10;;;;;;;19.31;47.92;97470.94;4891345;29;20218;-93
2022/04/14 03:19:10;;;;;;;3.03;2.33;;;;;;;13.66;47.22;96482.25;4906808;29;20194;-94
2022/04/14 03:21:37;;;;;;;3.33;2.47;;;;;;;15.34;47.60;96786.91;4914482;28;20182;-92
2022/04/14 03:24:14;;;;;;;3.37;2.50;;;;;;;14.98;46.95;96706.94;5005981;23;20281;-93
2022/04/14 03:26:50;;;;;;;3.93;2.80;;;;;;;15.10;46.65;96807.81;4911704;29;20239;-93
2022/04/14 03:29:21;;;;;;;2.73;2.30;;;;;;;12.95;47.52;96359.66;4872100;29;20636;-94
2022/04/14 03:31:48;;;;;;;2.40;2.20;;;;;;;16.90;48.19;97112.03;4872443;29;20187;-94
2022/04/14 03:34:32;;;;;;;2.83;2.33;;;;;;;13.83;47.68;96544.41;4884697;29;20188;-94
2022/04/14 03:37:12;;;;;;;3.10;2.40;;;;;;;16.99;47.84;97107.31;4883379;29;20236;-94
2022/04/14 03:39:50;;;;;;;3.47;2.60;;;;;;;14.12;47.33;96574.31;4881534;29;20202;-94
2022/04/14 03:45:05;;;;;;;2.40;2.20;;;;;;;13.76;47.60;96562.63;4899956;29;20191;-95
2022/04/14 03:47:46;;;;;;;3.00;2.50;;;;;;;15.50;47.52;96866.94;4860969;29;20215;-93
2022/04/14 03:50:16;;;;;;;3.17;2.70;;;;;;;13.76;47.95;96567.69;4883840;29;20215;-94
2022/04/14 03:52:55;;;;;;;3.67;2.70;;;;;;;17.54;48.12;97215.44;4869337;29;20211;-94
2022/04/14 03:55:35;;;;;;;2.60;2.40;;;;;;;14.13;47.72;96616.50;4852282;29;20208;-94
2022/04/14 03:58:21;;;;;;;2.63;2.40;;;;;;;15.14;47.28;96837.50;4877858;29;20259;-94
2022/04/14 04:01:06;;;;;;;3.17;2.67;;;;;;;12.94;47.69;96423.50;4857262;29;20256;-93
2022/04/14 04:04:04;;;;;;;2.83;2.50;;;;;;;12.79;46.95;96407.66;4857530;29;20195;-94
2022/04/14 04:06:35;;;;;;;2.93;2.63;;;;;;;17.81;47.62;97266.47;4868400;29;20215;-93
2022/04/14 04:09:09;;;;;;;2.53;2.30;;;;;;;14.26;47.72;96596.03;4868407;29;20180;-90
2022/04/14 04:11:42;;;;;;;3.60;2.73;;;;;;;17.74;46.90;97232.31;4869055;29;20203;-93
2022/04/14 04:14:21;;;;;;;2.90;2.37;;;;;;;15.37;48.35;96820.00;4868113;29;20200;-93
2022/04/14 04:17:17;;;;;;;3.30;2.63;;;;;;;13.55;47.76;96500.25;4870813;29;20294;-94
2022/04/14 04:19:52;;;;;;;2.47;2.27;;;;;;;15.66;47.73;96882.84;4853040;29;20192;-93
2022/04/14 04:22:24;;;;;;;2.97;2.67;;;;;;;16.31;47.96;96959.91;4883453;29;20191;-94
2022/04/14 04:24:53;;;;;;;2.93;2.37;;;;;;;15.67;47.47;96920.06;4868174;29;20226;-94
2022/04/14 04:27:20;;;;;;;3.70;2.80;;;;;;;15.86;47.45;96916.59;4866816;29;20212;-94
2022/04/14 04:29:47;;;;;;;2.60;2.40;;;;;;;15.77;47.83;96901.91;4868031;29;20212;-95
2022/04/14 04:32:14;;;;;;;2.83;2.40;;;;;;;15.49;47.89;96850.91;4870871;29;20806;-93
2022/04/14 04:34:44;;;;;;;4.33;2.70;;;;;;;14.32;48.67;96662.00;4882864;29;20257;-93
2022/04/14 04:37:15;;;;;;;5.90;3.30;;;;;;;14.77;49.21;96744.00;4881441;29;20213;-94
2022/04/14 04:39:49;;;;;;;7.53;3.73;;;;;;;14.92;49.09;96779.22;4854440;29;20254;-93
2022/04/14 04:42:20;;;;;;;9.00;3.30;;;;;;;13.95;48.80;96615.66;4854134;29;20210;-94
2022/04/14 04:44:52;;;;;;;12.63;3.53;;;;;;;14.20;49.23;96686.69;4867644;29;20216;-94
2022/04/14 04:47:22;;;;;;;6.50;3.70;;;;;;;15.68;48.91;96958.91;5023819;23;20243;-93
2022/04/14 04:49:48;;;;;;;7.77;4.17;;;;;;;19.33;49.06;97542.31;4853540;29;20180;-94
2022/04/14 04:52:26;;;;;;;8.53;4.50;;;;;;;13.75;48.85;96555.00;4855590;29;20172;-94
2022/04/14 04:54:53;;;;;;;6.33;3.97;;;;;;;15.39;48.67;96878.28;4868729;29;20206;-93
2022/04/14 04:57:20;;;;;;;5.37;4.10;;;;;;;16.91;48.47;97145.91;4867885;29;20240;-95
2022/04/14 04:59:46;;;;;;;5.57;4.23;;;;;;;13.46;48.37;96591.56;4852919;29;20215;-94
2022/04/14 05:02:13;;;;;;;6.30;5.17;;;;;;;14.65;48.60;96703.88;4855488;29;20208;-94
2022/04/14 05:07:15;;;;;;;10.47;6.47;;;;;;;15.80;48.08;96932.44;5455037;23;20222;-93
2022/04/14 05:20:45;;;;;;;9.70;7.03;;;;;;;13.58;47.50;96526.50;4954732;28;20240;-92
2022/04/14 05:23:12;;;;;;;8.83;6.80;;;;;;;15.65;48.15;96896.31;4958895;28;20185;-93
2022/04/14 05:25:39;;;;;;;9.83;7.60;;;;;;;14.77;47.49;96745.69;4943501;28;20213;-93
2022/04/14 05:28:06;;;;;;;8.73;7.07;;;;;;;14.28;48.10;96699.69;4939828;29;20266;-93
2022/04/14 05:30:32;;;;;;;9.80;6.73;;;;;;;16.11;47.79;96990.34;4932533;23;20227;-93
2022/04/14 05:32:59;;;;;;;10.07;6.90;;;;;;;14.79;47.67;96814.88;4916099;29;20183;-91
2022/04/14 05:35:46;;;;;;;9.83;6.50;;;;;;;15.58;47.30;96934.00;4875008;29;20191;-93
2022/04/14 05:38:13;;;;;;;9.27;7.17;;;;;;;16.68;46.88;97137.34;4883211;29;20211;-92
2022/04/14 05:40:41;;;;;;;10.70;7.57;;;;;;;18.15;47.27;97387.38;4891331;29;20228;-92
2022/04/14 05:43:16;;;;;;;9.03;6.87;;;;;;;13.74;47.18;96639.97;4850915;29;20188;-91
2022/04/14 05:45:44;;;;;;;9.70;6.67;;;;;;;17.16;47.55;97224.78;4883069;29;20190;-92
2022/04/14 05:48:12;;;;;;;8.80;6.70;;;;;;;15.43;47.44;96898.75;4869592;29;20253;-92
2022/04/14 05:50:41;;;;;;;8.87;6.53;;;;;;;19.21;47.88;97551.97;4869727;29;20168;-94
2022/04/14 05:53:08;;;;;;;7.90;5.90;;;;;;;18.56;47.91;97434.84;4854214;29;20196;-93
2022/04/14 05:55:35;;;;;;;9.17;6.70;;;;;;;17.14;47.78;97216.25;4881773;29;20195;-94
2022/04/14 05:58:05;;;;;;;10.27;6.20;;;;;;;15.56;47.43;96918.72;4866948;29;20223;-93
2022/04/14 06:00:33;;;;;;;6.97;6.27;;;;;;;17.71;48.21;97313.50;4858216;29;20201;-94
2022/04/14 06:03:00;;;;;;;7.67;6.37;;;;;;;16.85;48.25;97149.06;4885062;29;20208;-94
2022/04/14 06:05:27;;;;;;;8.30;5.93;;;;;;;14.85;48.20;96787.31;4855241;29;20188;-93
2022/04/14 06:07:54;;;;;;;11.00;6.13;;;;;;;15.79;48.17;96935.78;4882589;29;20223;-94
2022/04/14 06:10:22;;;;;;;7.50;5.87;;;;;;;13.45;48.88;96599.06;4870135;29;20221;-94
2022/04/14 06:12:49;;;;;;;6.50;5.70;;;;;;;14.13;48.08;96687.22;4870534;29;20191;-94
2022/04/14 06:15:16;;;;;;;6.30;5.27;;;;;;;14.57;48.25;96778.53;4855769;29;20196;-93
2022/04/14 06:17:43;;;;;;;10.20;6.00;;;;;;;15.30;47.87;96878.72;4867168;29;20224;-93
2022/04/14 06:20:11;;;;;;;7.07;5.80;;;;;;;14.72;48.12;96749.66;4870416;29;20187;-94
2022/04/14 06:22:42;;;;;;;5.83;5.13;;;;;;;14.26;48.70;96739.19;4868700;29;20190;-94
2022/04/14 06:25:22;;;;;;;6.10;5.20;;;;;;;14.28;47.95;96753.63;4844801;29;20184;-94
2022/04/14 06:27:50;;;;;;;5.67;5.10;;;;;;;18.63;48.46;97479.22;4864277;29;20237;-94
2022/04/14 06:30:18;;;;;;;6.43;5.33;;;;;;;18.03;48.49;97399.59;4850487;29;20196;-94
2022/04/14 06:32:57;;;;;;;6.87;5.33;;;;;;;14.42;48.40;96711.28;4854692;29;20188;-93
2022/04/14 06:35:25;;;;;;;7.83;5.10;;;;;;;16.17;48.44;97046.34;4876682;29;20194;-94
2022/04/14 06:37:52;;;;;;;6.20;5.00;;;;;;;14.22;48.52;96696.88;4853168;29;20249;-94
2022/04/14 06:40:20;;;;;;;7.60;4.83;;;;;;;15.39;48.39;96879.16;4859140;29;20226;-94
2022/04/14 06:43:02;;;;;;;5.77;4.50;;;;;;;13.74;48.46;96573.47;4869644;29;20187;-94
2022/04/14 06:45:30;;;;;;;6.10;5.03;;;;;;;15.69;48.36;96988.50;4863558;29;20187;-93
2022/04/14 06:47:57;;;;;;;5.17;4.67;;;;;;;15.79;48.56;97006.72;4895973;29;20204;-94
2022/04/14 06:50:24;;;;;;;5.70;4.47;;;;;;;18.37;48.43;97432.38;4851243;29;20382;-91
2022/04/14 06:52:52;;;;;;;4.97;4.47;;;;;;;13.42;48.34;96543.41;4854799;29;20259;-93
2022/04/14 06:55:21;;;;;;;4.73;4.23;;;;;;;15.84;48.25;96997.63;4874857;29;20187;-92
2022/04/14 06:57:48;;;;;;;6.40;4.03;;;;;;;17.38;48.78;97230.81;4869460;29;20216;-94
2022/04/14 07:00:15;;;;;;;6.10;4.70;;;;;;;17.11;48.38;97148.44;4850356;29;20196;-91
2022/04/14 07:02:50;;;;;;;5.40;4.40;;;;;;;16.81;48.07;97171.72;4861497;29;20386;-94
2022/04/14 07:05:17;;;;;;;4.90;4.40;;;;;;;15.52;48.11;96911.81;4870415;29;20194;-94
2022/04/14 07:07:43;;;;;;;4.93;4.43;;;;;;;17.80;48.35;97346.94;4865658;29;20210;-92
2022/04/14 07:10:12;;;;;;;5.43;4.03;;;;;;;15.59;47.46;96900.25;4862614;29;21384;-95
2022/04/14 07:12:47;;;;;;;5.83;4.37;;;;;;;18.28;48.02;97421.81;4860119;29;20187;-93
2022/04/14 07:15:14;;;;;;;5.90;4.13;;;;;;;14.81;48.52;96760.16;4863846;29;20195;-93
2022/04/14 07:17:41;;;;;;;5.77;4.40;;;;;;;14.65;48.38;96758.63;4866484;29;20246;-90
2022/04/14 07:20:11;;;;;;;5.87;4.50;;;;;;;16.53;48.35;97115.53;4864594;29;20213;-94
2022/04/14 07:22:43;;;;;;;5.47;4.20;;;;;;;15.80;48.16;96960.28;4876002;29;20189;-91
2022/04/14 07:25:09;;;;;;;8.30;4.00;;;;;;;17.71;48.44;97290.63;4851151;29;20183;-93
2022/04/14 07:27:36;;;;;;;6.60;4.57;;;;;;;17.48;48.23;97255.84;4854248;29;20228;-95
2022/04/14 07:30:03;;;;;;;6.83;4.40;;;;;;;13.21;48.36;96524.78;4866888;29;20221;-93
2022/04/14 07:32:37;;;;;;;6.10;4.13;;;;;;;17.11;48.85;97163.66;4868285;29;20190;-93
2022/04/14 07:35:04;;;;;;;6.93;4.17;;;;;;;17.39;49.28;97263.03;4853788;29;20195;-93
2022/04/14 07:40:24;;;;;;;6.33;4.13;;;;;;;17.76;48.65;97273.91;5198583;23;20202;-92
2022/04/14 07:42:54;;;;;;;10.67;4.50;;;;;;;17.23;48.49;97181.09;4923683;29;20190;-91
2022/04/14 07:45:26;;;;;;;5.70;4.40;;;;;;;16.61;48.36;97076.13;4923273;29;20174;-92
2022/04/14 07:51:01;;;;;;;18.27;4.67;;;;;;;17.20;49.09;97203.81;3151428;27;20201;-91
2022/04/14 07:56:05;;;;;;;10.97;4.53;;;;;;;17.89;49.14;97326.97;3304645;27;20216;-92
2022/04/14 07:58:38;;;;;;;7.93;4.60;;;;;;;16.41;48.82;97065.13;4910523;29;20194;-91
2022/04/14 08:01:29;;;;;;;6.30;4.60;;;;;;;16.51;49.26;97081.59;4929774;29;20176;-92
2022/04/14 08:03:56;;;;;;;8.40;5.27;;;;;;;17.94;49.40;97314.44;4925983;29;20181;-91
2022/04/14 08:06:25;;;;;;;8.60;4.80;;;;;;;16.74;49.12;97097.00;4900177;29;20208;-91
2022/04/14 08:08:52;;;;;;;9.90;4.37;;;;;;;19.50;49.60;97557.44;4910340;29;20206;-91
2022/04/14 08:11:19;;;;;;;8.50;5.17;;;;;;;19.50;49.63;97579.50;4926348;29;20198;-91
2022/04/14 08:13:47;;;;;;;9.30;4.60;;;;;;;17.27;49.38;97176.19;4924338;29;20181;-91
2022/04/14 08:16:17;;;;;;;5.00;4.27;;;;;;;16.55;49.81;97080.94;4924294;29;20174;-91
2022/04/14 08:21:34;;;;;;;6.77;4.87;;;;;;;19.56;49.48;97583.16;5155394;23;20205;-91
2022/04/14 08:24:05;;;;;;;5.23;4.37;;;;;;;17.35;49.81;97217.97;4923197;29;20166;-91
2022/04/14 08:26:32;;;;;;;5.50;4.67;;;;;;;19.12;49.48;97493.91;5035437;23;20244;-91
2022/04/14 08:29:00;;;;;;;7.00;4.70;;;;;;;17.18;49.48;97175.81;4909517;29;20202;-92
2022/04/14 08:31:29;;;;;;;6.63;4.93;;;;;;;19.61;49.63;97580.78;4926867;29;20176;-91
2022/04/14 08:34:07;;;;;;;5.13;4.17;;;;;;;17.19;49.68;97163.97;4913083;29;20166;-92
2022/04/14 08:36:38;;;;;;;5.77;4.80;;;;;;;19.15;49.61;97491.47;5347439;23;20660;-91
2022/04/14 08:39:08;;;;;;;6.87;5.03;;;;;;;18.31;49.64;97344.72;4901290;29;20214;-92
2022/04/14 08:41:36;;;;;;;5.73;4.43;;;;;;;16.74;49.62;97096.13;4901215;29;20258;-91
2022/04/14 08:44:06;;;;;;;11.50;4.43;;;;;;;16.82;49.83;97125.22;5001681;23;20219;-92
2022/04/14 08:46:36;;;;;;;10.47;4.97;;;;;;;17.43;49.49;97224.28;4868427;29;20175;-92
2022/04/14 08:49:04;;;;;;;5.40;4.70;;;;;;;17.27;49.82;97214.28;4852246;29;20187;-91
2022/04/14 08:51:33;;;;;;;4.93;4.40;;;;;;;16.66;49.80;97102.53;4868315;29;20196;-91
2022/04/14 08:54:01;;;;;;;5.90;4.97;;;;;;;17.65;49.84;97256.50;4870082;29;20207;-92
2022/04/14 08:56:32;;;;;;;5.90;4.60;;;;;;;17.99;49.67;97318.03;4885818;29;20164;-91
2022/04/14 08:58:59;;;;;;;5.57;4.80;;;;;;;17.00;49.64;97126.84;4870078;29;20217;-93
2022/04/14 09:01:27;;;;;;;7.33;4.73;;;;;;;18.19;49.55;97327.31;4854218;29;20176;-91
2022/04/14 09:03:56;;;;;;;5.30;4.23;;;;;;;16.63;49.37;97065.22;4866201;29;20197;-92
2022/04/14 09:06:27;;;;;;;5.63;4.20;;;;;;;17.41;49.81;97212.31;4884459;29;20184;-91
2022/04/14 09:08:59;;;;;;;7.23;4.57;;;;;;;16.63;49.28;97093.13;4869450;29;20206;-91
2022/04/14 09:11:27;;;;;;;5.43;4.27;;;;;;;17.10;49.71;97145.84;4870447;29;20165;-91
2022/04/14 09:13:55;;;;;;;6.10;5.03;;;;;;;17.38;49.51;97185.09;4872722;29;20195;-91
2022/04/14 09:16:25;;;;;;;5.27;4.50;;;;;;;18.09;49.77;97308.28;4873723;29;20188;-92
2022/04/14 09:18:54;;;;;;;7.07;5.27;;;;;;;18.14;49.45;97338.97;4889073;29;20195;-92
2022/04/14 09:21:21;;;;;;;5.60;5.10;;;;;;;16.56;50.03;97050.56;4872918;29;20180;-91
2022/04/14 09:23:51;;;;;;;8.83;5.20;;;;;;;19.65;50.11;97570.75;4873410;29;20173;-92
2022/04/14 09:26:29;;;;;;;9.83;6.47;;;;;;;16.76;49.58;97113.16;4874598;29;20168;-92
2022/04/14 09:29:07;;;;;;;7.80;5.80;;;;;;;19.65;49.65;97570.75;4888252;29;20195;-92
2022/04/14 09:31:50;;;;;;;9.40;5.67;;;;;;;16.66;49.78;97098.34;4881233;29;20176;-91
2022/04/14 09:37:08;;;;;;;7.90;5.87;;;;;;;17.35;49.18;97194.28;2399658;26;20185;-93
2022/04/14 09:42:32;;;;;;;6.33;5.40;;;;;;;17.76;49.41;97289.16;5246166;23;20226;-92
2022/04/14 09:45:38;;;;;;;6.70;5.53;;;;;;;17.43;49.63;97192.91;4905257;29;20175;-91
2022/04/14 09:48:05;;;;;;;6.00;5.17;;;;;;;17.90;49.33;97302.41;4905683;29;20200;-91
2022/04/14 09:50:39;;;;;;;9.87;6.40;;;;;;;16.65;49.65;97070.38;4918804;29;20187;-92
2022/04/14 09:53:12;;;;;;;8.27;6.33;;;;;;;17.57;49.24;97235.88;4886549;29;20207;-90
2022/04/14 09:58:24;;;;;;;8.47;6.47;;;;;;;17.93;49.63;97305.97;4111673;27;20214;-92
2022/04/14 10:00:52;;;;;;;8.53;6.23;;;;;;;18.09;49.18;97315.06;4887509;29;20183;-92
2022/04/14 10:03:26;;;;;;;10.53;6.23;;;;;;;17.74;49.46;97293.31;4907338;29;20263;-91
2022/04/14 10:05:57;;;;;;;6.93;5.97;;;;;;;17.43;49.32;97206.50;5023635;23;20214;-92
2022/04/14 10:08:27;;;;;;;11.70;6.33;;;;;;;19.66;49.58;97609.88;4885900;29;20202;-92
2022/04/14 10:11:07;;;;;;;8.83;6.63;;;;;;;18.81;49.33;97436.66;4885406;29;20183;-90
2022/04/14 10:13:35;;;;;;;8.03;6.17;;;;;;;19.66;49.24;97571.63;4884266;29;20187;-92
2022/04/14 10:16:03;;;;;;;8.07;6.23;;;;;;;19.66;49.48;97577.56;4899967;29;20216;-92
2022/04/14 10:18:31;;;;;;;7.83;6.00;;;;;;;16.60;49.21;97049.88;4885144;29;20248;-91
2022/04/14 10:20:58;;;;;;;11.20;6.63;;;;;;;17.92;49.31;97290.66;4884434;29;20203;-91
2022/04/14 10:23:29;;;;;;;8.73;5.70;;;;;;;19.10;49.12;97476.84;4913666;23;20230;-90
2022/04/14 10:25:56;;;;;;;8.30;5.50;;;;;;;17.27;49.25;97173.66;4891704;29;20245;-89
2022/04/14 10:28:25;;;;;;;8.40;5.80;;;;;;;19.10;49.50;97494.69;4889393;29;20211;-91
2022/04/14 10:30:55;;;;;;;8.37;5.53;;;;;;;18.69;49.32;97411.63;4889116;29;20339;-89
2022/04/14 10:33:22;;;;;;;9.07;5.47;;;;;;;17.81;49.43;97257.19;4884314;29;20214;-90
2022/04/14 10:35:50;;;;;;;8.03;6.07;;;;;;;19.61;49.40;97571.47;4891542;29;20218;-91
2022/04/14 10:38:34;;;;;;;9.23;6.00;;;;;;;18.73;49.26;97432.94;4901648;29;20215;-90
2022/04/14 10:41:13;;;;;;;7.03;5.50;;;;;;;18.10;49.70;97314.25;4898619;29;20251;-91
2022/04/14 10:43:41;;;;;;;9.40;5.37;;;;;;;18.03;49.78;97294.50;4905590;29;20187;-90
2022/04/14 10:46:07;;;;;;;6.77;5.37;;;;;;;17.77;49.84;97255.31;4875910;29;20183;-90
2022/04/14 10:48:35;;;;;;;10.03;5.30;;;;;;;17.94;49.86;97328.03;4885294;29;20207;-91
2022/04/14 10:51:24;;;;;;;7.20;5.27;;;;;;;19.69;49.81;97574.28;4892238;29;20267;-91
2022/04/14 10:54:04;;;;;;;10.77;4.83;;;;;;;19.69;49.54;97577.69;4897279;29;20199;-90
2022/04/14 10:56:33;;;;;;;7.77;5.47;;;;;;;19.69;49.71;97570.03;4899909;29;20238;-90
2022/04/14 10:59:01;;;;;;;8.60;4.87;;;;;;;18.16;49.63;97314.50;4903466;29;20210;-91
2022/04/14 11:01:55;;;;;;;5.73;3.97;;;;;;;19.71;49.39;97560.78;4900127;29;20224;-91
2022/04/14 11:04:25;;;;;;;7.87;5.07;;;;;;;19.72;49.62;97566.75;4898341;29;20186;-91
2022/04/14 11:06:58;;;;;;;7.33;4.60;;;;;;;19.02;49.65;97443.44;4895212;29;20215;-91
2022/04/14 11:10:00;;;;;;;7.37;4.30;;;;;;;19.73;49.56;97568.47;4884766;29;20190;-90
2022/04/14 11:12:32;;;;;;;4.93;4.43;;;;;;;19.73;49.67;97566.81;4902842;29;20186;-90
2022/04/14 11:15:03;;;;;;;6.10;4.70;;;;;;;19.28;49.27;97506.47;4913545;29;20201;-91
2022/04/14 11:17:40;;;;;;;5.33;3.87;;;;;;;19.75;49.53;97559.22;4885684;29;20202;-90
2022/04/14 11:20:13;;;;;;;5.63;4.40;;;;;;;19.76;49.19;97566.06;4907158;29;20244;-90
2022/04/14 11:23:02;;;;;;;7.40;4.57;;;;;;;19.75;49.24;97560.06;4905352;29;20183;-90
2022/04/14 11:25:51;;;;;;;5.83;4.10;;;;;;;19.77;49.29;97577.97;4900321;29;20196;-91
2022/04/14 11:28:24;;;;;;;5.33;4.10;;;;;;;19.46;49.14;97503.75;4952093;23;20495;-91
2022/04/14 11:30:56;;;;;;;6.37;4.40;;;;;;;19.38;49.21;97490.72;4913771;29;20428;-90
2022/04/14 11:33:30;;;;;;;6.10;4.40;;;;;;;18.95;49.46;97440.63;4886420;29;20190;-92
2022/04/14 11:38:54;;;;;;;5.47;4.10;;;;;;;19.79;49.49;97555.97;4194960;27;20213;-91
2022/04/14 11:41:36;;;;;;;8.03;4.60;;;;;;;19.32;49.47;97479.41;4929265;28;20226;-91
2022/04/14 11:47:10;;;;;;;5.67;4.33;;;;;;;17.88;49.32;97220.13;5780945;23;20206;-90
2022/04/14 11:49:38;;;;;;;7.60;4.70;;;;;;;17.15;49.24;97116.44;4957702;23;20772;-91
2022/04/14 12:10:54;;;;;;;5.67;4.30;;;;;;;17.09;48.90;97099.28;5498131;23;20205;-93
2022/04/14 12:24:03;;;;;;;6.50;4.43;;;;;;;19.78;49.46;97546.59;1271615;26;20224;-93
2022/04/14 12:26:32;;;;;;;8.33;4.43;;;;;;;17.56;49.58;97141.81;4941655;28;20303;-93
2022/04/14 12:28:59;;;;;;;5.13;4.33;;;;;;;17.66;49.52;97179.47;4926367;28;20200;-92
2022/04/14 12:31:28;;;;;;;5.83;4.37;;;;;;;19.27;49.34;97430.00;4933927;28;20209;-92
2022/04/14 12:33:59;;;;;;;6.20;4.60;;;;;;;17.70;49.38;97168.59;4922332;29;20280;-93
2022/04/14 12:36:46;;;;;;;9.47;4.63;;;;;;;19.03;49.28;97418.81;4936617;28;20185;-93
2022/04/14 12:39:20;;;;;;;5.57;4.20;;;;;;;16.85;49.23;97028.91;4930633;28;20292;-93
2022/04/14 12:41:47;;;;;;;5.13;4.23;;;;;;;19.27;49.54;97463.94;4922875;29;20197;-93
2022/04/14 12:44:20;;;;;;;5.63;4.73;;;;;;;16.83;49.44;97022.91;4924067;28;20215;-93
2022/04/14 12:46:51;;;;;;;5.50;4.13;;;;;;;19.84;49.28;97527.25;4930065;28;20204;-93
2022/04/14 12:49:20;;;;;;;8.83;5.00;;;;;;;17.93;49.45;97209.34;4926110;29;20182;-91
2022/04/14 12:51:54;;;;;;;5.83;4.50;;;;;;;19.85;49.60;97521.34;4931304;28;20193;-92
2022/04/14 12:54:23;;;;;;;5.63;4.33;;;;;;;17.45;49.29;97128.69;4937069;29;20185;-93
2022/04/14 12:57:01;;;;;;;6.70;4.37;;;;;;;16.83;49.50;97041.53;4926916;29;20277;-94
2022/04/14 12:59:32;;;;;;;6.07;4.37;;;;;;;19.84;49.26;97517.06;4935652;28;20214;-93
2022/04/14 13:02:08;;;;;;;8.03;4.70;;;;;;;17.61;49.74;97155.53;4943307;29;20229;-92
2022/04/14 13:04:42;;;;;;;5.03;4.40;;;;;;;18.31;49.34;97284.56;4929937;28;20185;-92
2022/04/14 13:07:12;;;;;;;6.97;4.57;;;;;;;17.27;49.18;97088.97;4926220;28;20209;-92
2022/04/14 13:09:56;;;;;;;6.40;4.90;;;;;;;18.21;49.96;97262.97;4942355;28;20185;-92
2022/04/14 13:12:43;;;;;;;7.10;4.50;;;;;;;18.24;49.22;97247.84;4925186;28;20227;-92
2022/04/14 13:15:10;;;;;;;5.57;4.37;;;;;;;17.94;49.18;97188.19;4930347;28;20192;-91
2022/04/14 13:17:38;;;;;;;6.30;4.67;;;;;;;17.63;49.25;97131.06;4949435;28;20224;-92
2022/04/14 13:20:07;;;;;;;6.80;4.20;;;;;;;19.85;49.28;97505.19;4933513;28;20227;-92
2022/04/14 13:22:34;;;;;;;7.60;5.03;;;;;;;17.81;49.24;97149.56;4958461;28;20177;-92
2022/04/14 13:25:01;;;;;;;5.33;4.10;;;;;;;18.08;49.29;97209.94;4930454;29;20205;-92
2022/04/14 13:27:28;;;;;;;8.37;4.53;;;;;;;19.01;49.45;97357.66;4924671;28;20276;-93
2022/04/14 13:29:55;;;;;;;6.30;4.50;;;;;;;17.80;48.95;97169.00;4951641;23;20221;-93
2022/04/14 13:32:22;;;;;;;5.03;3.87;;;;;;;18.36;49.52;97246.56;4922102;28;20186;-91
2022/04/14 13:34:49;;;;;;;9.27;4.63;;;;;;;18.46;49.33;97272.44;4906606;29;20190;-92
2022/04/14 13:37:16;;;;;;;6.10;3.90;;;;;;;19.48;49.22;97462.19;4950207;23;20237;-92
2022/04/14 13:39:42;;;;;;;6.37;4.60;;;;;;;17.15;49.36;97064.00;4935124;28;20229;-92
2022/04/14 13:42:09;;;;;;;4.83;4.23;;;;;;;18.56;49.42;97294.88;4888300;29;20232;-89